Time;durP1;ratioP1;P1;durP2;ratioP2;P2;SDS_P1;SDS_P2;PMS_P1;PMS_P2;Temp;Humidity;BMP_temperature;BMP_pressure;BME280_temperature;BME280_humidity;BME280_pressure;Samples;Min_cycle;Max_cycle;Signal;HPM_P1;HPM_P2
2022/01/11 00:00:30;;;;;;;1.75;1.65;;;;;;;3.33;100.00;101813.78;5036222;28;20120;-77
2022/01/11 00:02:56;;;;;;;4.95;3.78;;;;;;;3.29;100.00;101813.16;5035004;28;20459;-78
2022/01/11 00:05:31;;;;;;;1.75;1.65;;;;;;;3.29;100.00;101813.16;5039190;28;20036;-79
2022/01/11 00:07:57;;;;;;;0.90;0.88;;;;;;;3.33;100.00;101812.00;5026256;28;20067;-77
2022/01/11 00:10:30;;;;;;;0.77;0.77;;;;;;;3.35;100.00;101818.06;5022799;28;20163;-77
2022/01/11 00:12:57;;;;;;;1.73;1.63;;;;;;;3.32;100.00;101825.41;5024227;28;20025;-77
2022/01/11 00:15:24;;;;;;;1.33;1.33;;;;;;;3.24;100.00;101810.81;5023445;28;20755;-79
2022/01/11 00:17:50;;;;;;;0.85;0.85;;;;;;;3.21;100.00;101819.00;5024643;28;21354;-77
2022/01/11 00:20:17;;;;;;;0.60;0.60;;;;;;;3.18;100.00;101805.06;5045679;28;20131;-77
2022/01/11 00:25:41;;;;;;;0.70;0.70;;;;;;;3.22;100.00;101822.50;5028491;28;20119;-78
2022/01/11 00:28:08;;;;;;;0.50;0.50;;;;;;;3.29;100.00;101834.44;5030008;28;20036;-77
2022/01/11 00:30:37;;;;;;;0.85;0.85;;;;;;;3.25;100.00;101830.25;5041193;28;20025;-79
2022/01/11 00:33:07;;;;;;;2.45;2.35;;;;;;;3.26;100.00;101846.13;5034164;28;20104;-78
2022/01/11 00:35:44;;;;;;;0.50;0.50;;;;;;;3.32;100.00;101850.16;5020016;28;20108;-78
2022/01/11 00:38:18;;;;;;;2.88;1.63;;;;;;;3.36;100.00;101856.13;5024886;28;20067;-78
2022/01/11 00:40:51;;;;;;;1.27;1.27;;;;;;;3.30;100.00;101841.44;5021357;28;20396;-79
2022/01/11 00:43:18;;;;;;;2.92;2.50;;;;;;;3.26;100.00;101850.59;5025006;28;20094;-79
2022/01/11 00:45:44;;;;;;;1.00;1.00;;;;;;;3.22;100.00;101865.03;5039773;28;20029;-78
2022/01/11 00:48:10;;;;;;;1.73;1.63;;;;;;;3.17;100.00;101856.50;5022570;28;20032;-80
2022/01/11 00:50:37;;;;;;;1.63;1.40;;;;;;;3.19;100.00;101849.28;5031853;28;20037;-78
2022/01/11 00:53:06;;;;;;;2.38;2.22;;;;;;;3.19;100.00;101860.75;5030966;28;20041;-78
2022/01/11 00:55:34;;;;;;;8.80;2.22;;;;;;;3.18;100.00;101860.88;5043477;28;20120;-78
2022/01/11 00:58:00;;;;;;;3.15;2.85;;;;;;;3.22;100.00;101873.00;5029572;28;20032;-78
2022/01/11 01:00:25;;;;;;;3.63;3.33;;;;;;;3.18;100.00;101874.16;5024286;28;20033;-77
2022/01/11 01:02:51;;;;;;;1.85;1.75;;;;;;;3.07;100.00;101873.06;5037605;28;20498;-78
2022/01/11 01:05:17;;;;;;;3.60;3.40;;;;;;;2.94;100.00;101865.94;5028851;28;20494;-78
2022/01/11 01:07:46;;;;;;;0.70;0.70;;;;;;;2.90;100.00;101872.44;5043031;28;20037;-78
2022/01/11 01:10:25;;;;;;;0.75;0.75;;;;;;;2.83;100.00;101870.19;5016251;28;20051;-80
2022/01/11 01:13:01;;;;;;;1.85;1.75;;;;;;;2.81;100.00;101868.56;5051136;28;20068;-78
2022/01/11 01:15:27;;;;;;;4.00;3.10;;;;;;;2.80;100.00;101878.31;5040456;28;20032;-78
2022/01/11 01:17:55;;;;;;;5.20;2.70;;;;;;;2.81;100.00;101881.84;5041641;28;20032;-78
2022/01/11 01:20:22;;;;;;;3.40;3.10;;;;;;;2.85;100.00;101883.34;5038715;28;20033;-78
2022/01/11 01:22:50;;;;;;;3.40;3.10;;;;;;;2.83;100.00;101888.78;5014266;28;20049;-79
2022/01/11 01:25:20;;;;;;;0.60;0.60;;;;;;;2.79;100.00;101884.59;5035773;28;20482;-78
2022/01/11 01:27:47;;;;;;;0.65;0.65;;;;;;;2.82;100.00;101888.84;5017378;28;20125;-79
2022/01/11 01:30:13;;;;;;;0.70;0.70;;;;;;;2.76;100.00;101902.53;5038891;28;20033;-78
2022/01/11 01:32:38;;;;;;;0.70;0.70;;;;;;;2.72;100.00;101893.91;5048964;28;20123;-78
2022/01/11 01:35:05;;;;;;;3.35;2.67;;;;;;;2.67;100.00;101890.69;5029228;28;20039;-78
2022/01/11 01:37:31;;;;;;;1.88;1.77;;;;;;;2.73;100.00;101906.25;5049222;28;20037;-77
2022/01/11 01:39:57;;;;;;;0.80;0.80;;;;;;;2.70;100.00;101900.25;5041039;28;20047;-78
2022/01/11 01:42:27;;;;;;;5.20;4.88;;;;;;;2.68;100.00;101899.53;5020860;28;20029;-79
2022/01/11 01:44:52;;;;;;;0.98;0.98;;;;;;;2.58;100.00;101894.78;5023764;28;20041;-79
2022/01/11 01:47:19;;;;;;;1.80;1.70;;;;;;;2.35;100.00;101871.47;5037502;28;20029;-78
2022/01/11 01:49:45;;;;;;;1.40;1.40;;;;;;;2.42;100.00;101894.88;5024101;28;20036;-78
2022/01/11 01:52:11;;;;;;;1.42;1.35;;;;;;;2.57;100.00;101916.97;5003472;28;20505;-79
2022/01/11 01:54:36;;;;;;;0.60;0.60;;;;;;;2.56;100.00;101919.72;5020522;28;20025;-79
2022/01/11 01:57:04;;;;;;;3.92;1.90;;;;;;;2.55;100.00;101918.88;5025838;28;20393;-79
2022/01/11 01:59:30;;;;;;;2.20;2.00;;;;;;;2.55;100.00;101920.66;5008388;28;22607;-78
2022/01/11 02:01:57;;;;;;;2.08;1.95;;;;;;;2.54;100.00;101924.25;5039038;28;20056;-78
2022/01/11 02:04:23;;;;;;;1.95;1.85;;;;;;;2.60;100.00;101927.41;5023297;28;20506;-79
2022/01/11 02:06:49;;;;;;;0.80;0.80;;;;;;;2.50;100.00;101912.13;5021369;28;20115;-78
2022/01/11 02:09:15;;;;;;;4.13;1.60;;;;;;;2.60;100.00;101932.72;5037617;28;20040;-78
2022/01/11 02:11:41;;;;;;;4.13;1.75;;;;;;;2.60;100.00;101932.72;5017170;28;20033;-77
2022/01/11 02:14:07;;;;;;;3.45;3.13;;;;;;;2.59;100.00;101925.69;5039722;28;20091;-78
2022/01/11 02:16:33;;;;;;;0.95;0.90;;;;;;;2.56;100.00;101925.88;5027332;28;20036;-78
2022/01/11 02:18:59;;;;;;;1.95;1.85;;;;;;;2.51;100.00;101933.25;5047473;28;20059;-78
2022/01/11 02:21:25;;;;;;;1.25;1.25;;;;;;;2.48;100.00;101948.53;5003404;28;20060;-79
2022/01/11 02:23:50;;;;;;;1.70;1.48;;;;;;;2.42;100.00;101947.13;5022039;28;20028;-79
2022/01/11 02:26:16;;;;;;;1.13;1.02;;;;;;;2.40;100.00;101936.56;5039806;28;20068;-78
2022/01/11 02:28:42;;;;;;;0.85;0.85;;;;;;;2.45;100.00;101949.56;5033632;28;20036;-77
2022/01/11 02:31:12;;;;;;;5.93;4.45;;;;;;;2.44;100.00;101953.19;5038634;28;20032;-78
2022/01/11 02:33:44;;;;;;;0.60;0.60;;;;;;;2.46;100.00;101956.63;5047493;28;20091;-79
2022/01/11 02:36:17;;;;;;;2.17;2.08;;;;;;;2.39;100.00;101952.63;5039127;28;20173;-77
2022/01/11 02:38:43;;;;;;;1.48;1.45;;;;;;;2.38;100.00;101966.81;5011263;28;20047;-78
2022/01/11 02:41:08;;;;;;;2.63;2.35;;;;;;;2.33;100.00;101968.91;5009406;28;20407;-77
2022/01/11 02:43:40;;;;;;;0.65;0.65;;;;;;;2.30;100.00;101975.28;5032604;28;20036;-78
2022/01/11 02:46:06;;;;;;;0.50;0.50;;;;;;;2.29;100.00;101981.50;5010024;28;20033;-78
2022/01/11 02:48:35;;;;;;;5.50;1.15;;;;;;;2.26;100.00;101971.06;5002004;28;20390;-78
2022/01/11 02:51:01;;;;;;;0.50;0.50;;;;;;;2.34;100.00;101986.53;4999411;28;20556;-78
2022/01/11 02:53:26;;;;;;;0.52;0.52;;;;;;;2.27;100.00;101978.09;5022890;28;20532;-78
2022/01/11 02:55:52;;;;;;;1.55;1.55;;;;;;;2.32;100.00;101980.47;5039218;28;20481;-78
2022/01/11 02:58:18;;;;;;;0.57;0.57;;;;;;;2.24;100.00;101982.72;5037267;28;20033;-79
2022/01/11 03:00:44;;;;;;;0.95;0.95;;;;;;;2.34;100.00;101989.19;5024922;28;20039;-79
2022/01/11 03:03:20;;;;;;;0.70;0.70;;;;;;;2.35;100.00;101983.78;5014881;28;20033;-78
2022/01/11 03:06:12;;;;;;;0.77;0.77;;;;;;;2.35;100.00;101997.06;4996138;28;20640;-79
2022/01/11 03:08:42;;;;;;;0.63;0.63;;;;;;;2.30;100.00;102003.59;4994032;28;20040;-78
2022/01/11 03:11:09;;;;;;;0.60;0.60;;;;;;;2.27;100.00;101994.00;5008173;28;20128;-78
2022/01/11 03:13:35;;;;;;;0.50;0.50;;;;;;;2.27;100.00;102009.09;5013085;28;20106;-78
2022/01/11 03:16:02;;;;;;;1.02;1.02;;;;;;;2.22;100.00;102011.16;5022148;28;20048;-78
2022/01/11 03:18:28;;;;;;;1.20;0.77;;;;;;;2.25;100.00;102016.28;5036864;28;20028;-78
2022/01/11 03:20:54;;;;;;;2.35;2.22;;;;;;;2.23;100.00;102011.06;5037646;28;20032;-78
2022/01/11 03:23:20;;;;;;;1.40;1.40;;;;;;;2.26;100.00;102013.53;5020297;28;20025;-78
2022/01/11 03:25:48;;;;;;;0.77;0.77;;;;;;;2.28;100.00;102013.47;5039138;28;20122;-77
2022/01/11 03:28:14;;;;;;;0.98;0.98;;;;;;;2.24;100.00;102014.56;5004053;28;20053;-78
2022/01/11 03:30:39;;;;;;;0.75;0.75;;;;;;;2.17;100.00;102020.25;5019409;28;20262;-79
2022/01/11 03:33:08;;;;;;;3.28;1.55;;;;;;;2.13;100.00;102026.69;5038972;28;20021;-78
2022/01/11 03:35:38;;;;;;;0.50;0.50;;;;;;;2.05;100.00;102020.13;5000754;28;20072;-78
2022/01/11 03:38:06;;;;;;;0.60;0.60;;;;;;;2.08;100.00;102022.59;5021843;28;20960;-78
2022/01/11 03:40:32;;;;;;;2.22;2.15;;;;;;;2.09;100.00;102017.19;5035204;28;20025;-78
2022/01/11 03:42:57;;;;;;;0.70;0.70;;;;;;;2.09;100.00;102027.81;5020648;28;20123;-81
2022/01/11 03:45:24;;;;;;;2.05;1.95;;;;;;;2.02;100.00;102015.84;5014644;28;20040;-77
2022/01/11 03:47:51;;;;;;;1.00;1.00;;;;;;;2.05;100.00;102026.28;5025013;28;20083;-77
2022/01/11 03:50:18;;;;;;;1.98;1.88;;;;;;;2.02;100.00;102036.22;5028747;28;20542;-77
2022/01/11 03:52:44;;;;;;;0.70;0.70;;;;;;;2.02;100.00;102053.00;5027100;28;20040;-77
2022/01/11 03:55:21;;;;;;;0.50;0.50;;;;;;;2.05;100.00;102050.16;5028389;28;20045;-78
2022/01/11 03:57:47;;;;;;;0.98;0.98;;;;;;;2.05;100.00;102036.88;5053128;28;20116;-77
2022/01/11 04:00:17;;;;;;;0.60;0.60;;;;;;;2.10;100.00;102049.88;5045589;28;20063;-78
2022/01/11 04:02:43;;;;;;;0.50;0.50;;;;;;;2.10;100.00;102056.03;5039916;28;20036;-78
2022/01/11 04:05:11;;;;;;;0.50;0.50;;;;;;;2.05;100.00;102033.38;5028338;28;20045;-78
2022/01/11 04:07:38;;;;;;;0.60;0.60;;;;;;;2.12;100.00;102062.13;5043156;28;20049;-79
2022/01/11 04:10:04;;;;;;;0.60;0.60;;;;;;;2.13;100.00;102060.31;5037217;28;20073;-79
2022/01/11 04:12:30;;;;;;;0.82;0.82;;;;;;;2.10;100.00;102053.41;5036097;28;20032;-78
2022/01/11 04:14:56;;;;;;;0.50;0.50;;;;;;;2.09;100.00;102061.44;5008072;28;20041;-78
2022/01/11 04:17:22;;;;;;;1.00;1.00;;;;;;;2.09;100.00;102057.00;5023783;28;20032;-78
2022/01/11 04:19:48;;;;;;;1.77;1.67;;;;;;;2.06;100.00;102067.75;5023302;28;20372;-77
2022/01/11 04:22:14;;;;;;;3.20;2.90;;;;;;;2.04;100.00;102072.31;5051981;28;20051;-78
2022/01/11 04:24:39;;;;;;;1.98;1.88;;;;;;;2.01;100.00;102068.97;5024029;28;20033;-78
2022/01/11 04:27:05;;;;;;;0.85;0.85;;;;;;;1.98;100.00;102070.00;5008697;28;20032;-78
2022/01/11 04:29:31;;;;;;;0.63;0.63;;;;;;;1.97;100.00;102070.97;5019863;28;20074;-79
2022/01/11 04:31:57;;;;;;;1.00;1.00;;;;;;;1.94;100.00;102072.00;5023563;28;20070;-78
2022/01/11 04:34:25;;;;;;;0.50;0.50;;;;;;;1.91;100.00;102081.94;5041464;28;20550;-78
2022/01/11 04:36:51;;;;;;;0.98;0.98;;;;;;;1.90;100.00;102081.06;5043851;28;20043;-78
2022/01/11 04:39:17;;;;;;;0.50;0.50;;;;;;;1.80;100.00;102073.69;5022099;28;20037;-78
2022/01/11 04:41:43;;;;;;;0.50;0.50;;;;;;;1.83;100.00;102094.78;5026186;28;20036;-78
2022/01/11 04:44:08;;;;;;;1.33;1.33;;;;;;;1.82;100.00;102101.00;5022589;28;20110;-77
2022/01/11 04:46:34;;;;;;;1.35;1.35;;;;;;;1.73;100.00;102108.53;5039743;28;20036;-77
2022/01/11 04:49:00;;;;;;;0.50;0.50;;;;;;;1.68;100.00;102115.88;5042669;28;20033;-78
2022/01/11 04:51:26;;;;;;;0.50;0.50;;;;;;;1.71;100.00;102112.22;5040947;28;20029;-78
2022/01/11 04:53:52;;;;;;;0.60;0.60;;;;;;;1.75;100.00;102127.88;5038442;28;20426;-79
2022/01/11 04:56:18;;;;;;;2.47;1.25;;;;;;;1.72;100.00;102106.84;5038489;28;20502;-79
2022/01/11 04:58:43;;;;;;;0.60;0.60;;;;;;;1.78;100.00;102123.34;5026674;28;20030;-78
2022/01/11 05:01:09;;;;;;;1.05;1.05;;;;;;;1.74;100.00;102126.13;5009552;28;20122;-78
2022/01/11 05:03:35;;;;;;;0.80;0.80;;;;;;;1.65;100.00;102121.38;5040323;28;20028;-79
2022/01/11 05:06:04;;;;;;;0.50;0.50;;;;;;;1.64;100.00;102132.91;5048280;28;20754;-78
2022/01/11 05:08:30;;;;;;;0.63;0.63;;;;;;;1.67;100.00;102135.41;5041292;28;20434;-78
2022/01/11 05:10:56;;;;;;;0.50;0.50;;;;;;;1.71;100.00;102128.13;5046179;28;20104;-77
2022/01/11 05:13:21;;;;;;;0.50;0.50;;;;;;;1.69;100.00;102119.38;5035997;28;20536;-77
2022/01/11 05:15:48;;;;;;;1.88;1.77;;;;;;;1.77;100.00;102146.34;5056543;28;20074;-78
2022/01/11 05:18:14;;;;;;;4.10;2.00;;;;;;;1.75;100.00;102154.38;5011190;28;20131;-78
2022/01/11 05:20:40;;;;;;;0.40;0.40;;;;;;;1.71;100.00;102154.63;5040416;28;20479;-77
2022/01/11 05:23:07;;;;;;;0.80;0.80;;;;;;;1.70;100.00;102160.91;5026932;28;20044;-78
2022/01/11 05:25:33;;;;;;;0.50;0.50;;;;;;;1.66;100.00;102165.47;5041430;28;20104;-77
2022/01/11 05:27:59;;;;;;;0.50;0.50;;;;;;;1.66;100.00;102173.44;5008691;28;20033;-77
2022/01/11 05:30:25;;;;;;;0.70;0.70;;;;;;;1.50;100.00;102143.41;5040162;28;20091;-78
2022/01/11 05:32:51;;;;;;;0.82;0.82;;;;;;;1.63;100.00;102168.31;5022541;28;20033;-77
2022/01/11 05:35:18;;;;;;;0.50;0.50;;;;;;;1.53;100.00;102156.50;5043616;28;20127;-77
2022/01/11 05:37:43;;;;;;;0.77;0.77;;;;;;;1.49;100.00;102168.22;5018482;28;20033;-78
2022/01/11 05:40:10;;;;;;;2.10;2.00;;;;;;;1.50;100.00;102164.59;4998905;28;20242;-78
2022/01/11 05:42:37;;;;;;;0.88;0.88;;;;;;;1.50;100.00;102167.25;5034411;28;20048;-79
2022/01/11 05:45:03;;;;;;;0.60;0.60;;;;;;;1.53;100.00;102172.38;5035487;28;20433;-78
2022/01/11 05:47:29;;;;;;;0.80;0.80;;;;;;;1.55;100.00;102167.88;5041807;28;20472;-78
2022/01/11 05:49:55;;;;;;;0.65;0.65;;;;;;;1.53;100.00;102172.38;5004193;28;20033;-79
2022/01/11 05:52:20;;;;;;;0.95;0.95;;;;;;;1.35;100.00;102153.06;5020029;28;20047;-78
2022/01/11 05:54:46;;;;;;;0.65;0.65;;;;;;;1.44;100.00;102178.19;5018116;28;20025;-78
2022/01/11 05:57:12;;;;;;;1.58;1.48;;;;;;;1.39;100.00;102182.88;5036543;28;20040;-79
2022/01/11 05:59:37;;;;;;;0.88;0.88;;;;;;;1.28;100.00;102168.41;5022672;28;20033;-78
2022/01/11 06:02:03;;;;;;;2.80;2.58;;;;;;;1.34;100.00;102190.22;5050189;28;20046;-78
2022/01/11 06:04:29;;;;;;;0.60;0.60;;;;;;;1.25;100.00;102183.63;5023153;28;20479;-78
2022/01/11 06:06:55;;;;;;;3.33;1.17;;;;;;;1.14;100.00;102184.19;5005704;28;20032;-78
2022/01/11 06:09:26;;;;;;;1.45;1.23;;;;;;;1.08;100.00;102176.53;5017239;28;20813;-78
2022/01/11 06:11:53;;;;;;;0.60;0.60;;;;;;;1.09;100.00;102175.63;5013477;28;20032;-79
2022/01/11 06:14:19;;;;;;;0.75;0.75;;;;;;;1.14;100.00;102176.25;5038409;28;20047;-78
2022/01/11 06:16:50;;;;;;;1.58;1.58;;;;;;;1.15;100.00;102190.34;5022520;28;20072;-79
2022/01/11 06:19:15;;;;;;;1.40;1.30;;;;;;;1.16;100.00;102192.88;5024993;28;20037;-78
2022/01/11 06:21:41;;;;;;;1.88;1.77;;;;;;;1.16;100.00;102195.53;5020889;28;20033;-78
2022/01/11 06:24:07;;;;;;;0.57;0.57;;;;;;;1.24;100.00;102198.63;5004449;28;20084;-78
2022/01/11 06:26:33;;;;;;;0.50;0.50;;;;;;;1.29;100.00;102193.09;5024264;28;20471;-79
2022/01/11 06:29:01;;;;;;;0.75;0.75;;;;;;;1.35;100.00;102205.19;5040683;28;20039;-78
2022/01/11 06:31:27;;;;;;;0.63;0.63;;;;;;;1.38;100.00;102197.94;5021862;28;20032;-77
2022/01/11 06:33:53;;;;;;;0.50;0.50;;;;;;;1.55;100.00;102215.59;5020281;28;20119;-78
2022/01/11 06:36:19;;;;;;;0.93;0.93;;;;;;;1.62;100.00;102203.72;5024633;28;21305;-78
2022/01/11 06:38:44;;;;;;;0.50;0.50;;;;;;;1.78;100.00;102216.16;5013990;28;20033;-78
2022/01/11 06:41:11;;;;;;;0.75;0.75;;;;;;;1.88;100.00;102227.97;5018561;28;20457;-78
2022/01/11 06:43:37;;;;;;;1.67;1.30;;;;;;;1.91;100.00;102223.38;5029726;28;20035;-78
2022/01/11 06:46:03;;;;;;;0.50;0.50;;;;;;;1.89;100.00;102227.88;5033525;28;20064;-78
2022/01/11 06:48:29;;;;;;;0.60;0.60;;;;;;;1.83;100.00;102230.88;5021005;28;20044;-78
2022/01/11 06:50:55;;;;;;;0.70;0.70;;;;;;;1.85;100.00;102241.41;5022105;28;20066;-79
2022/01/11 06:53:20;;;;;;;0.93;0.93;;;;;;;1.88;100.00;102246.53;5006424;28;20044;-78
2022/01/11 06:55:46;;;;;;;0.82;0.82;;;;;;;1.82;100.00;102230.97;5035139;28;20033;-77
2022/01/11 06:58:13;;;;;;;1.15;1.15;;;;;;;1.95;100.00;102248.78;5051494;28;20044;-79
2022/01/11 07:00:39;;;;;;;0.60;0.60;;;;;;;2.03;100.00;102261.63;5037781;28;20463;-78
2022/01/11 07:03:05;;;;;;;0.90;0.90;;;;;;;1.99;100.00;102254.78;5037243;28;20067;-77
2022/01/11 07:05:31;;;;;;;0.50;0.50;;;;;;;2.07;100.00;102259.69;5039107;28;20036;-78
2022/01/11 07:07:57;;;;;;;0.63;0.63;;;;;;;2.16;100.00;102267.97;5014316;28;20471;-78
2022/01/11 07:10:22;;;;;;;0.60;0.60;;;;;;;2.24;100.00;102274.66;5003411;28;20037;-78
2022/01/11 07:12:48;;;;;;;1.27;1.17;;;;;;;2.26;100.00;102276.28;5010302;28;20087;-77
2022/01/11 07:15:14;;;;;;;0.50;0.50;;;;;;;2.34;100.00;102281.19;5024166;28;22199;-77
2022/01/11 07:17:41;;;;;;;5.40;1.88;;;;;;;2.39;100.00;102287.94;5006831;28;20033;-77
2022/01/11 07:20:08;;;;;;;0.70;0.70;;;;;;;2.40;100.00;102292.28;5013514;28;20084;-78
2022/01/11 07:22:33;;;;;;;0.60;0.60;;;;;;;2.40;100.00;102284.31;5049921;28;20045;-77
2022/01/11 07:24:59;;;;;;;0.60;0.60;;;;;;;2.37;100.00;102287.16;5027117;28;20043;-77
2022/01/11 07:27:25;;;;;;;0.85;0.85;;;;;;;2.25;100.00;102292.28;5026003;28;20036;-78
2022/01/11 07:29:51;;;;;;;0.60;0.60;;;;;;;2.12;100.00;102298.28;5030333;28;20036;-78
2022/01/11 07:32:16;;;;;;;1.35;1.35;;;;;;;1.96;100.00;102286.78;5044531;28;20033;-77
2022/01/11 07:34:43;;;;;;;0.50;0.50;;;;;;;1.88;100.00;102295.16;5024069;28;20375;-78
2022/01/11 07:37:08;;;;;;;0.50;0.50;;;;;;;1.84;100.00;102295.38;5043179;28;20056;-79
2022/01/11 07:39:34;;;;;;;0.77;0.77;;;;;;;1.68;100.00;102292.69;5038499;28;20474;-78
2022/01/11 07:42:00;;;;;;;1.08;1.08;;;;;;;1.57;100.00;102295.91;5042576;28;20040;-78
2022/01/11 07:44:25;;;;;;;0.55;0.55;;;;;;;1.46;100.00;102306.22;5056405;28;20025;-78
2022/01/11 07:46:52;;;;;;;0.95;0.68;;;;;;;1.32;100.00;102293.63;5032324;28;20040;-78
2022/01/11 07:49:19;;;;;;;0.57;0.57;;;;;;;1.30;100.00;102317.59;5018005;28;20037;-77
2022/01/11 07:51:45;;;;;;;0.50;0.50;;;;;;;1.21;100.00;102323.34;5034064;28;20183;-78
2022/01/11 07:54:11;;;;;;;1.05;0.85;;;;;;;1.09;100.00;102326.63;5056422;28;20111;-77
2022/01/11 07:56:37;;;;;;;0.90;0.70;;;;;;;1.02;100.00;102341.94;5019527;28;20475;-78
2022/01/11 07:59:03;;;;;;;1.65;1.55;;;;;;;0.93;100.00;102346.81;5047832;28;20033;-77
2022/01/11 08:01:29;;;;;;;0.50;0.50;;;;;;;0.85;100.00;102345.41;5048849;28;20024;-78
2022/01/11 08:03:55;;;;;;;0.60;0.60;;;;;;;0.81;100.00;102337.69;5015169;28;20102;-77
2022/01/11 08:06:20;;;;;;;0.50;0.50;;;;;;;0.87;100.00;102353.28;5048302;28;20037;-77
2022/01/11 08:08:46;;;;;;;0.60;0.60;;;;;;;0.82;100.00;102337.63;5018374;28;20581;-78
2022/01/11 08:11:12;;;;;;;0.50;0.50;;;;;;;0.92;100.00;102356.56;5020221;28;20040;-77
2022/01/11 08:13:39;;;;;;;0.50;0.50;;;;;;;0.87;100.00;102354.16;5018445;28;20437;-78
2022/01/11 08:16:05;;;;;;;0.50;0.50;;;;;;;0.76;100.00;102361.72;5014152;28;20037;-77
2022/01/11 08:18:30;;;;;;;0.50;0.50;;;;;;;0.69;100.00;102373.56;5025389;28;20648;-78
2022/01/11 08:20:56;;;;;;;0.50;0.50;;;;;;;0.61;100.00;102371.28;5010204;28;20045;-77
2022/01/11 08:23:22;;;;;;;0.50;0.50;;;;;;;0.63;100.00;102382.63;5038308;28;20039;-78
2022/01/11 08:25:47;;;;;;;0.98;0.98;;;;;;;0.54;100.00;102377.78;5051396;28;20467;-78
2022/01/11 08:28:13;;;;;;;0.50;0.50;;;;;;;0.58;100.00;102386.41;5015069;28;20072;-78
2022/01/11 08:30:39;;;;;;;1.35;1.35;;;;;;;0.64;100.00;102397.59;5030683;28;20029;-78
2022/01/11 08:33:05;;;;;;;0.50;0.50;;;;;;;0.59;100.00;102398.75;5013324;28;20119;-77
2022/01/11 08:35:32;;;;;;;0.50;0.50;;;;;;;0.47;100.00;102399.28;5049084;28;20064;-77
2022/01/11 08:37:58;;;;;;;0.50;0.50;;;;;;;0.48;100.00;102391.31;5046655;28;20094;-78
2022/01/11 08:40:25;;;;;;;1.33;1.30;;;;;;;0.44;100.00;102402.94;5030398;28;20463;-78
2022/01/11 08:42:53;;;;;;;0.50;0.50;;;;;;;0.36;100.00;102408.56;5017279;28;20075;-78
2022/01/11 08:45:19;;;;;;;1.73;1.63;;;;;;;0.30;100.00;102411.50;5034879;28;20075;-78
2022/01/11 08:47:45;;;;;;;0.95;0.95;;;;;;;0.26;100.00;102423.13;5042061;28;20120;-77
2022/01/11 08:50:12;;;;;;;0.90;0.90;;;;;;;0.22;100.00;102430.38;5067213;28;22064;-77
2022/01/11 08:52:46;;;;;;;0.60;0.60;;;;;;;0.07;100.00;102435.47;5050257;28;20032;-77
2022/01/11 08:55:14;;;;;;;4.35;3.22;;;;;;;0.09;100.00;102454.78;5019426;28;20025;-78
2022/01/11 08:57:40;;;;;;;0.50;0.50;;;;;;;0.05;100.00;102442.59;5038812;28;20162;-77
2022/01/11 09:00:16;;;;;;;0.70;0.70;;;;;;;0.24;100.00;102462.06;5018259;28;20064;-78
2022/01/11 09:02:46;;;;;;;0.50;0.50;;;;;;;0.24;100.00;102448.84;5014393;28;20041;-78
2022/01/11 09:05:13;;;;;;;0.50;0.50;;;;;;;0.35;100.00;102472.16;5042795;28;20853;-79
2022/01/11 09:07:38;;;;;;;1.40;1.33;;;;;;;0.45;100.00;102473.47;5032167;28;20455;-77
2022/01/11 09:10:05;;;;;;;3.67;3.33;;;;;;;0.38;100.00;102478.19;5055290;28;20127;-77
2022/01/11 09:12:32;;;;;;;0.63;0.63;;;;;;;0.41;100.00;102485.97;5048027;28;20368;-77
2022/01/11 09:14:57;;;;;;;0.93;0.93;;;;;;;0.35;100.00;102493.34;5017186;28;20032;-77
2022/01/11 09:17:23;;;;;;;5.28;2.05;;;;;;;0.38;100.00;102488.75;5014160;28;21772;-77
2022/01/11 09:19:49;;;;;;;0.65;0.65;;;;;;;0.37;100.00;102491.47;5011441;28;20056;-78
2022/01/11 09:22:14;;;;;;;0.60;0.60;;;;;;;0.26;100.00;102494.56;5027992;28;20037;-79
2022/01/11 09:24:40;;;;;;;0.50;0.50;;;;;;;0.29;100.00;102504.16;5027409;28;20032;-80
2022/01/11 09:27:06;;;;;;;0.60;0.60;;;;;;;0.27;100.00;102506.03;5040153;28;20029;-79
2022/01/11 09:29:33;;;;;;;0.60;0.60;;;;;;;0.32;100.00;102518.16;5043331;28;20039;-79
2022/01/11 09:32:02;;;;;;;1.95;1.73;;;;;;;0.38;100.00;102527.59;5027178;28;20032;-77
2022/01/11 09:34:28;;;;;;;1.13;1.13;;;;;;;0.46;100.00;102521.97;5026714;28;20124;-78
2022/01/11 09:36:54;;;;;;;1.02;1.02;;;;;;;0.49;100.00;102524.47;5028251;28;20397;-77
2022/01/11 09:39:22;;;;;;;1.45;1.15;;;;;;;0.54;100.00;102527.78;5045168;28;20035;-77
2022/01/11 09:41:48;;;;;;;0.75;0.75;;;;;;;0.60;100.00;102520.41;5027769;28;20055;-79
2022/01/11 09:44:13;;;;;;;1.67;1.58;;;;;;;0.83;100.00;102524.69;5037271;28;20413;-80
2022/01/11 09:46:39;;;;;;;0.50;0.50;;;;;;;1.18;100.00;102531.94;5003918;28;20477;-78
2022/01/11 09:49:05;;;;;;;2.25;0.88;;;;;;;1.33;100.00;102527.75;5048230;28;20035;-78
2022/01/11 09:51:32;;;;;;;1.20;1.20;;;;;;;1.68;100.00;102534.00;5012465;28;20056;-80
2022/01/11 09:53:58;;;;;;;0.60;0.60;;;;;;;1.97;100.00;102525.44;5035018;28;20033;-79
2022/01/11 09:56:25;;;;;;;1.25;1.17;;;;;;;2.28;100.00;102528.38;5042156;28;20052;-78
2022/01/11 09:58:51;;;;;;;0.60;0.60;;;;;;;2.63;100.00;102532.69;5032266;28;20037;-78
2022/01/11 10:01:17;;;;;;;1.85;1.73;;;;;;;3.01;100.00;102537.75;5047911;28;20475;-80
2022/01/11 10:03:58;;;;;;;0.55;0.55;;;;;;;3.47;100.00;102542.34;5032473;28;20029;-78
2022/01/11 10:06:25;;;;;;;0.70;0.70;;;;;;;4.06;100.00;102545.19;5044230;28;20535;-78
2022/01/11 10:08:51;;;;;;;2.40;2.25;;;;;;;4.28;100.00;102534.13;5033859;28;20033;-77
2022/01/11 10:11:34;;;;;;;2.63;2.42;;;;;;;4.47;100.00;102542.72;5049856;28;20079;-79
2022/01/11 10:14:16;;;;;;;0.70;0.70;;;;;;;4.80;100.00;102545.16;5051191;28;20175;-78
2022/01/11 10:16:44;;;;;;;1.15;1.15;;;;;;;5.25;99.81;102545.03;5046747;28;20068;-78
2022/01/11 10:19:25;;;;;;;0.70;0.70;;;;;;;6.47;95.22;102548.63;5041977;28;20111;-77
2022/01/11 10:21:51;;;;;;;0.90;0.90;;;;;;;7.44;91.15;102539.97;5033126;28;20036;-78
2022/01/11 10:24:32;;;;;;;0.70;0.70;;;;;;;8.27;88.31;102561.44;5017346;28;20090;-78
2022/01/11 10:27:11;;;;;;;1.38;1.27;;;;;;;8.88;85.88;102546.97;5049006;28;20471;-78
2022/01/11 10:29:40;;;;;;;0.80;0.80;;;;;;;9.39;83.95;102547.34;5033455;28;20040;-78
2022/01/11 10:32:31;;;;;;;1.83;1.73;;;;;;;9.80;82.13;102559.19;5033461;28;20071;-78
2022/01/11 10:35:00;;;;;;;0.80;0.80;;;;;;;10.25;82.94;102561.72;5045368;28;20037;-78
2022/01/11 10:37:28;;;;;;;0.85;0.85;;;;;;;10.72;82.37;102561.38;5027255;28;20040;-78
2022/01/11 10:40:01;;;;;;;0.93;0.93;;;;;;;11.26;81.88;102564.75;5016896;28;20065;-79
2022/01/11 10:42:32;;;;;;;0.93;0.93;;;;;;;11.62;80.73;102564.13;5029641;28;20033;-78
2022/01/11 10:45:04;;;;;;;0.70;0.70;;;;;;;11.81;79.13;102568.72;5049099;28;20017;-78
2022/01/11 10:47:31;;;;;;;2.20;1.13;;;;;;;12.23;78.99;102579.28;5048211;28;20041;-77
2022/01/11 10:50:07;;;;;;;0.90;0.90;;;;;;;12.71;78.14;102580.22;5033322;28;20036;-78
2022/01/11 10:52:34;;;;;;;0.90;0.90;;;;;;;13.04;78.89;102595.03;5029519;28;20029;-78
2022/01/11 10:55:03;;;;;;;2.50;1.27;;;;;;;13.30;80.73;102597.09;5031445;28;20053;-79
2022/01/11 10:57:37;;;;;;;1.45;1.35;;;;;;;13.28;77.57;102591.00;5050080;28;20086;-78
2022/01/11 11:00:04;;;;;;;1.48;1.38;;;;;;;12.76;80.26;102592.28;5049274;28;20072;-78
2022/01/11 11:02:30;;;;;;;1.95;1.85;;;;;;;12.32;80.72;102585.66;5012511;28;20064;-78
2022/01/11 11:04:58;;;;;;;1.33;1.30;;;;;;;12.48;80.51;102579.69;5046164;28;20522;-78
2022/01/11 11:07:26;;;;;;;2.90;1.95;;;;;;;12.35;80.18;102582.66;5026788;28;20041;-78
2022/01/11 11:09:52;;;;;;;1.65;1.52;;;;;;;12.08;81.34;102597.72;5047330;28;20040;-78
2022/01/11 11:12:20;;;;;;;1.63;1.52;;;;;;;11.52;82.60;102605.53;5016143;28;20044;-78
2022/01/11 11:14:56;;;;;;;19.25;3.53;;;;;;;12.08;83.07;102596.88;5035248;28;20055;-79
2022/01/11 11:17:32;;;;;;;2.28;2.10;;;;;;;12.51;80.66;102600.97;5020541;28;20025;-79
2022/01/11 11:20:02;;;;;;;2.03;1.92;;;;;;;12.66;79.37;102596.00;5053631;28;20502;-79
2022/01/11 11:22:28;;;;;;;1.70;1.60;;;;;;;12.80;78.81;102613.56;5036848;28;20033;-78
2022/01/11 11:24:56;;;;;;;15.88;3.58;;;;;;;12.42;81.15;102599.16;5037169;28;20475;-78
2022/01/11 11:27:23;;;;;;;3.47;2.83;;;;;;;12.18;81.88;102613.91;5053765;28;20090;-78